Time;durP1;ratioP1;P1;durP2;ratioP2;P2;SDS_P1;SDS_P2;PMS_P1;PMS_P2;Temp;Humidity;BMP_temperature;BMP_pressure;BME280_temperature;BME280_humidity;BME280_pressure;Samples;Min_cycle;Max_cycle;Signal;HPM_P1;HPM_P2
2022/10/15 00:01:16;;;;;;;58.63;30.50;;;13.70;99.90;;;;;;4934728;28;98574;-74
2022/10/15 00:03:44;;;;;;;59.75;30.83;;;13.70;99.90;;;;;;4968644;28;98505;-74
2022/10/15 00:06:15;;;;;;;48.78;27.85;;;13.70;99.90;;;;;;4955569;28;99393;-74
2022/10/15 00:08:42;;;;;;;59.33;30.13;;;13.70;99.90;;;;;;4954161;28;101602;-74
2022/10/15 00:11:15;;;;;;;59.10;31.05;;;13.70;99.90;;;;;;4955177;28;104559;-74
2022/10/15 00:13:42;;;;;;;60.03;30.98;;;13.80;99.90;;;;;;4954557;28;97871;-74
2022/10/15 00:16:13;;;;;;;57.95;29.23;;;13.80;99.90;;;;;;4955251;28;99321;-74
2022/10/15 00:18:41;;;;;;;54.58;29.17;;;13.80;99.90;;;;;;4955571;28;99309;-74
2022/10/15 00:21:09;;;;;;;49.65;29.27;;;13.80;99.90;;;;;;4955544;28;99184;-74
2022/10/15 00:23:37;;;;;;;57.30;31.35;;;13.80;99.90;;;;;;4955493;28;98545;-74
2022/10/15 00:26:07;;;;;;;53.80;29.60;;;13.80;99.90;;;;;;4955439;28;99318;-74
2022/10/15 00:28:35;;;;;;;68.60;33.22;;;13.80;99.90;;;;;;4953921;28;101662;-74
2022/10/15 00:31:06;;;;;;;56.80;30.75;;;13.80;99.90;;;;;;4970668;28;98567;-74
2022/10/15 00:33:34;;;;;;;48.60;28.42;;;13.80;99.90;;;;;;4955089;28;98546;-74
2022/10/15 00:36:13;;;;;;;68.93;33.42;;;13.80;99.90;;;;;;4969844;28;101793;-74
2022/10/15 00:38:41;;;;;;;55.80;32.40;;;13.90;99.90;;;;;;4954013;28;102282;-74
2022/10/15 00:41:13;;;;;;;54.97;31.15;;;13.80;99.90;;;;;;4954344;28;98473;-74
2022/10/15 00:43:53;;;;;;;57.22;30.95;;;13.80;99.90;;;;;;4970292;28;98634;-74
2022/10/15 00:46:41;;;;;;;56.95;33.72;;;13.90;99.90;;;;;;4954682;28;99994;-74
2022/10/15 00:49:29;;;;;;;70.28;34.47;;;13.80;99.90;;;;;;4955134;28;99817;-74
2022/10/15 00:52:18;;;;;;;67.60;35.35;;;13.80;99.90;;;;;;4953941;28;98588;-73
2022/10/15 00:54:58;;;;;;;80.35;37.95;;;13.70;99.90;;;;;;4937441;28;98507;-74
2022/10/15 00:57:26;;;;;;;61.40;34.58;;;13.70;99.90;;;;;;4954972;28;99239;-74
2022/10/15 00:59:59;;;;;;;84.10;38.45;;;13.60;99.90;;;;;;4969667;28;102177;-74
2022/10/15 01:02:26;;;;;;;73.85;38.38;;;13.70;99.90;;;;;;4953676;28;98604;-74
2022/10/15 01:04:54;;;;;;;71.50;37.55;;;13.60;99.90;;;;;;4955350;28;97775;-74
2022/10/15 01:07:21;;;;;;;77.75;39.55;;;13.60;99.90;;;;;;4954526;28;99559;-74
2022/10/15 01:09:49;;;;;;;70.00;38.33;;;13.60;99.90;;;;;;4954495;28;99028;-74
2022/10/15 01:12:39;;;;;;;74.43;38.80;;;13.70;99.90;;;;;;4937016;28;99265;-74
2022/10/15 01:15:15;;;;;;;74.68;39.65;;;13.70;99.90;;;;;;4953276;28;98876;-74
2022/10/15 01:18:11;;;;;;;78.82;38.47;;;13.70;99.90;;;;;;4954457;28;99305;-74
2022/10/15 01:20:49;;;;;;;77.72;39.63;;;13.80;99.90;;;;;;4953261;28;98839;-74
2022/10/15 01:23:38;;;;;;;92.22;41.95;;;13.70;99.90;;;;;;4953346;28;98581;-74
2022/10/15 01:26:26;;;;;;;85.28;41.13;;;13.80;99.90;;;;;;4953337;28;98598;-74
2022/10/15 01:29:10;;;;;;;89.35;41.75;;;13.80;99.90;;;;;;4952732;28;101970;-74
2022/10/15 01:31:56;;;;;;;62.53;36.97;;;13.80;99.90;;;;;;4953196;28;101372;-74
2022/10/15 01:34:36;;;;;;;78.60;38.97;;;13.90;99.90;;;;;;4952638;28;98610;-74
2022/10/15 01:37:15;;;;;;;94.07;40.85;;;13.80;99.90;;;;;;4969663;28;99127;-74
2022/10/15 01:39:52;;;;;;;80.50;39.80;;;13.90;99.90;;;;;;4953768;28;100178;-74
2022/10/15 01:42:31;;;;;;;74.10;40.30;;;13.90;99.90;;;;;;4953248;28;102107;-74
2022/10/15 01:45:06;;;;;;;69.63;36.25;;;13.90;99.90;;;;;;4936760;28;98631;-74
2022/10/15 01:47:45;;;;;;;74.72;38.22;;;13.90;99.90;;;;;;4969142;28;98633;-74
2022/10/15 01:50:13;;;;;;;73.75;37.67;;;13.90;99.90;;;;;;4968964;28;101594;-74
2022/10/15 01:52:42;;;;;;;69.38;36.92;;;13.90;99.90;;;;;;4936087;28;102067;-74
2022/10/15 01:55:13;;;;;;;68.25;37.92;;;13.90;99.90;;;;;;4936751;28;99191;-74
2022/10/15 01:57:43;;;;;;;75.63;37.72;;;13.90;99.90;;;;;;4953239;28;97895;-74
2022/10/15 02:00:12;;;;;;;61.00;35.60;;;13.90;99.90;;;;;;4936639;28;101621;-74
2022/10/15 02:02:39;;;;;;;69.35;38.03;;;13.90;99.90;;;;;;4936249;28;101548;-74
2022/10/15 02:05:16;;;;;;;61.85;36.63;;;13.90;99.90;;;;;;4968770;28;99262;-74
2022/10/15 02:08:01;;;;;;;70.00;38.15;;;13.90;99.90;;;;;;4954081;28;98556;-74
2022/10/15 02:10:56;;;;;;;77.38;38.97;;;13.90;99.90;;;;;;4952449;28;101764;-74
2022/10/15 02:14:04;;;;;;;76.20;37.15;;;13.90;99.90;;;;;;4954107;28;99634;-74
2022/10/15 02:16:51;;;;;;;64.03;36.67;;;13.90;99.90;;;;;;4904426;28;98597;-74
2022/10/15 02:19:28;;;;;;;70.28;36.70;;;13.90;99.90;;;;;;4968854;28;98627;-74
2022/10/15 02:22:21;;;;;;;85.18;41.03;;;13.80;99.90;;;;;;4951863;28;101874;-74
2022/10/15 02:24:57;;;;;;;65.38;36.33;;;13.80;99.90;;;;;;4968502;28;101623;-74
2022/10/15 02:27:27;;;;;;;81.70;39.25;;;13.80;99.90;;;;;;4935654;28;98667;-74
2022/10/15 02:29:56;;;;;;;64.57;36.58;;;13.80;99.90;;;;;;4953582;28;98492;-74
2022/10/15 02:32:25;;;;;;;69.13;37.00;;;13.80;99.90;;;;;;4967890;28;102734;-74
2022/10/15 02:34:53;;;;;;;69.65;38.33;;;13.80;99.90;;;;;;4968002;28;102006;-74
2022/10/15 02:37:24;;;;;;;64.13;35.25;;;13.80;99.90;;;;;;4953725;28;98531;-74
2022/10/15 02:39:51;;;;;;;70.00;37.17;;;13.80;99.90;;;;;;4968349;28;98602;-74
2022/10/15 02:42:19;;;;;;;74.20;38.72;;;13.80;99.90;;;;;;4951998;28;101796;-74
2022/10/15 02:44:47;;;;;;;75.03;37.63;;;13.80;99.90;;;;;;4967877;28;102235;-74
2022/10/15 02:47:14;;;;;;;70.43;37.75;;;13.80;99.90;;;;;;4968330;28;98710;-74
2022/10/15 02:49:41;;;;;;;62.35;35.05;;;13.80;99.90;;;;;;4968619;28;97817;-74
2022/10/15 02:52:09;;;;;;;69.20;36.80;;;13.80;99.90;;;;;;4935480;28;101892;-74
2022/10/15 02:54:36;;;;;;;69.50;37.15;;;13.80;99.90;;;;;;4951612;28;101683;-74
2022/10/15 02:57:03;;;;;;;64.47;35.00;;;13.80;99.90;;;;;;4951586;28;99341;-74
2022/10/15 02:59:30;;;;;;;75.07;37.78;;;13.90;99.90;;;;;;4968269;28;98674;-74
2022/10/15 03:01:58;;;;;;;63.70;35.30;;;13.90;99.90;;;;;;4967502;28;101668;-74
2022/10/15 03:04:26;;;;;;;66.18;35.95;;;13.90;99.90;;;;;;4951655;28;100964;-74
2022/10/15 03:06:53;;;;;;;69.88;36.88;;;13.90;99.90;;;;;;4967883;28;98573;-74
2022/10/15 03:09:21;;;;;;;60.30;34.67;;;13.90;99.90;;;;;;4951780;28;99115;-74
2022/10/15 03:11:48;;;;;;;52.97;32.03;;;13.90;99.90;;;;;;4935013;28;101761;-74
2022/10/15 03:14:16;;;;;;;60.88;34.53;;;13.90;99.90;;;;;;4952015;28;100401;-74
2022/10/15 03:16:43;;;;;;;61.30;34.22;;;13.90;99.90;;;;;;4951465;28;98718;-74
2022/10/15 03:19:10;;;;;;;52.45;30.83;;;13.90;99.90;;;;;;4968004;28;99078;-74
2022/10/15 03:21:38;;;;;;;56.25;34.00;;;13.90;99.90;;;;;;4934834;28;102243;-74
2022/10/15 03:24:10;;;;;;;63.70;33.60;;;13.90;99.90;;;;;;4951083;28;102160;-74
2022/10/15 03:26:37;;;;;;;50.20;31.13;;;13.90;99.90;;;;;;4951600;28;99018;-74
2022/10/15 03:29:04;;;;;;;59.30;34.35;;;13.90;99.90;;;;;;4967677;28;98975;-74
2022/10/15 03:31:35;;;;;;;56.60;31.75;;;13.90;99.90;;;;;;4951341;28;101602;-74
2022/10/15 03:34:03;;;;;;;53.65;31.40;;;13.90;99.90;;;;;;4950592;28;101398;-74
2022/10/15 03:36:30;;;;;;;54.83;31.25;;;13.90;99.90;;;;;;4951672;28;99095;-74
2022/10/15 03:38:59;;;;;;;56.72;32.03;;;13.90;99.90;;;;;;4966860;28;97845;-74
2022/10/15 03:41:26;;;;;;;47.88;28.42;;;13.90;99.90;;;;;;4952677;28;99391;-74
2022/10/15 03:43:53;;;;;;;48.97;28.27;;;13.90;99.90;;;;;;4966877;28;101587;-74
2022/10/15 03:46:20;;;;;;;56.25;32.22;;;13.90;99.90;;;;;;4952477;28;99289;-74
2022/10/15 03:48:49;;;;;;;52.90;29.52;;;13.90;99.90;;;;;;4935239;28;98709;-74
2022/10/15 03:51:17;;;;;;;52.25;29.92;;;13.90;99.90;;;;;;4967269;28;101547;-74
2022/10/15 03:53:49;;;;;;;60.13;32.50;;;13.90;99.90;;;;;;4950937;28;101539;-74
2022/10/15 03:56:16;;;;;;;52.05;29.98;;;13.90;99.90;;;;;;4952524;28;98555;-74
2022/10/15 03:58:43;;;;;;;53.25;31.33;;;13.90;99.90;;;;;;4967629;28;98509;-74
2022/10/15 04:01:16;;;;;;;51.95;28.40;;;13.90;99.90;;;;;;4967000;28;101153;-74
2022/10/15 04:03:43;;;;;;;48.00;27.42;;;13.90;99.90;;;;;;4951101;28;101906;-74
2022/10/15 04:06:10;;;;;;;50.15;30.38;;;13.90;99.90;;;;;;4967274;28;98557;-74
2022/10/15 04:08:38;;;;;;;48.72;28.30;;;13.90;99.90;;;;;;4950992;28;98615;-74
2022/10/15 04:11:18;;;;;;;46.83;28.05;;;13.90;99.90;;;;;;4935931;28;102166;-74
2022/10/15 04:13:51;;;;;;;46.03;27.08;;;13.80;99.90;;;;;;4951000;28;102234;-74
2022/10/15 04:16:18;;;;;;;55.70;29.48;;;13.80;99.90;;;;;;4934615;28;98542;-74
2022/10/15 04:18:46;;;;;;;50.35;27.65;;;13.80;99.90;;;;;;4950884;28;98575;-74
2022/10/15 04:21:13;;;;;;;51.40;28.77;;;13.80;99.90;;;;;;4966636;28;102066;-74
2022/10/15 04:23:43;;;;;;;52.05;29.92;;;13.80;99.90;;;;;;4935016;28;101522;-74
2022/10/15 04:26:23;;;;;;;56.88;30.02;;;13.80;99.90;;;;;;4967336;28;98643;-74
2022/10/15 04:28:50;;;;;;;51.05;29.20;;;13.80;99.90;;;;;;4951352;28;97916;-74
2022/10/15 04:31:19;;;;;;;46.47;28.88;;;13.80;99.90;;;;;;4966659;28;101709;-74
2022/10/15 04:33:48;;;;;;;53.05;30.27;;;13.80;99.90;;;;;;4917709;28;101595;-74
2022/10/15 04:36:15;;;;;;;47.50;28.17;;;13.80;99.90;;;;;;4966608;28;99421;-74
2022/10/15 04:38:48;;;;;;;44.23;27.00;;;13.80;99.90;;;;;;4951812;28;98721;-74
2022/10/15 04:41:24;;;;;;;59.67;32.17;;;13.80;99.90;;;;;;4920754;28;101605;-74
2022/10/15 04:44:11;;;;;;;52.05;30.02;;;13.70;99.90;;;;;;4951249;28;99133;-74
2022/10/15 04:46:39;;;;;;;51.92;30.10;;;13.70;99.90;;;;;;4934394;28;98553;-74
2022/10/15 04:49:26;;;;;;;52.58;30.85;;;13.70;99.90;;;;;;4952179;28;98575;-74
2022/10/15 04:51:54;;;;;;;53.80;30.98;;;13.70;99.90;;;;;;4969986;28;101846;-74
2022/10/15 04:54:27;;;;;;;63.05;32.95;;;13.70;99.90;;;;;;4954804;28;102339;-74
2022/10/15 04:57:01;;;;;;;64.20;34.35;;;13.70;99.90;;;;;;4955017;28;99192;-74
2022/10/15 04:59:29;;;;;;;60.53;31.90;;;13.60;99.90;;;;;;4953788;28;98649;-74
2022/10/15 05:02:16;;;;;;;53.90;31.88;;;13.60;99.90;;;;;;4954589;28;101088;-74
2022/10/15 05:04:47;;;;;;;52.72;31.77;;;13.60;99.90;;;;;;4953504;28;102628;-74
2022/10/15 05:07:14;;;;;;;58.97;31.60;;;13.60;99.90;;;;;;4969852;28;98630;-74
2022/10/15 05:09:41;;;;;;;56.20;30.55;;;13.60;99.90;;;;;;4921504;28;98620;-73
2022/10/15 05:12:12;;;;;;;57.97;31.80;;;13.60;99.90;;;;;;4969552;28;101862;-74
2022/10/15 05:14:39;;;;;;;60.67;32.38;;;13.60;99.90;;;;;;4953423;28;101520;-74
2022/10/15 05:17:13;;;;;;;55.05;31.23;;;13.60;99.90;;;;;;4953414;28;98618;-74
2022/10/15 05:19:41;;;;;;;57.92;32.33;;;13.50;99.90;;;;;;4954266;28;98414;-74
2022/10/15 05:22:16;;;;;;;59.28;33.20;;;13.50;99.90;;;;;;4922659;28;102003;-74
2022/10/15 05:24:49;;;;;;;55.40;32.20;;;13.50;99.90;;;;;;4969574;28;101592;-74
2022/10/15 05:27:30;;;;;;;66.68;34.15;;;13.50;99.90;;;;;;4952737;28;99338;-74
2022/10/15 05:29:58;;;;;;;68.78;35.08;;;13.40;99.90;;;;;;4953609;28;98733;-74
2022/10/15 05:32:33;;;;;;;58.83;32.25;;;13.40;99.90;;;;;;4952949;28;101386;-73
2022/10/15 05:35:00;;;;;;;56.58;32.13;;;13.40;99.90;;;;;;4969199;28;101424;-73
2022/10/15 05:37:40;;;;;;;63.25;34.40;;;13.40;99.90;;;;;;4953157;28;98608;-74
2022/10/15 05:40:08;;;;;;;62.58;34.08;;;13.40;99.90;;;;;;4937043;28;98722;-74
2022/10/15 05:42:35;;;;;;;62.95;33.92;;;13.40;99.90;;;;;;4952807;28;101770;-74
2022/10/15 05:45:02;;;;;;;61.25;33.75;;;13.40;99.90;;;;;;4953192;28;101698;-74
2022/10/15 05:47:29;;;;;;;65.05;34.63;;;13.40;99.90;;;;;;4968969;28;98647;-74
2022/10/15 05:50:11;;;;;;;61.75;34.75;;;13.40;99.90;;;;;;4955348;28;99087;-73
2022/10/15 05:52:43;;;;;;;67.80;37.03;;;13.40;99.90;;;;;;4952424;28;102404;-73
2022/10/15 05:55:30;;;;;;;71.63;37.85;;;13.40;99.90;;;;;;4953187;28;99626;-74
2022/10/15 05:58:01;;;;;;;65.75;36.58;;;13.50;99.90;;;;;;4953288;28;98913;-74
2022/10/15 06:00:29;;;;;;;64.20;35.85;;;13.50;99.90;;;;;;4935984;28;98623;-74
2022/10/15 06:02:56;;;;;;;58.75;33.83;;;13.50;99.90;;;;;;4952141;28;106881;-74
2022/10/15 06:05:23;;;;;;;61.70;33.58;;;13.50;99.90;;;;;;4953652;28;99069;-74
2022/10/15 06:07:50;;;;;;;62.72;35.67;;;13.60;99.90;;;;;;4954017;28;98464;-74
2022/10/15 06:10:18;;;;;;;60.35;35.22;;;13.60;99.90;;;;;;4969269;28;98475;-74
2022/10/15 06:12:49;;;;;;;67.15;36.22;;;13.60;99.90;;;;;;4936156;28;101932;-74
2022/10/15 06:15:17;;;;;;;60.33;34.53;;;13.60;99.90;;;;;;4935962;28;101521;-74
2022/10/15 06:17:44;;;;;;;61.70;36.08;;;13.60;99.90;;;;;;4968567;28;99330;-74
2022/10/15 06:20:12;;;;;;;62.67;34.60;;;13.70;99.90;;;;;;4952726;28;98673;-74
2022/10/15 06:22:39;;;;;;;64.63;34.58;;;13.70;99.90;;;;;;4953504;28;99391;-74
2022/10/15 06:25:06;;;;;;;58.45;34.05;;;13.70;99.90;;;;;;4952160;28;101635;-74
2022/10/15 06:27:33;;;;;;;63.85;34.13;;;13.70;99.90;;;;;;4953737;28;98576;-74
2022/10/15 06:30:00;;;;;;;56.35;33.85;;;13.70;99.90;;;;;;4952342;28;98754;-74
2022/10/15 06:32:27;;;;;;;61.20;33.25;;;13.80;99.90;;;;;;4953314;28;99427;-74
2022/10/15 06:34:54;;;;;;;55.28;32.78;;;13.80;99.90;;;;;;4952301;28;99228;-74
2022/10/15 06:37:21;;;;;;;54.53;31.33;;;13.80;99.90;;;;;;4953600;28;98550;-74
2022/10/15 06:39:50;;;;;;;54.88;31.60;;;13.80;99.90;;;;;;4968626;28;98636;-74
2022/10/15 06:42:17;;;;;;;55.35;32.50;;;13.80;99.90;;;;;;4951374;28;101124;-74
2022/10/15 06:44:46;;;;;;;58.72;33.28;;;13.80;99.90;;;;;;4968204;28;102581;-74
2022/10/15 06:47:15;;;;;;;59.13;33.60;;;13.90;99.90;;;;;;4952419;28;98587;-74
2022/10/15 06:49:46;;;;;;;53.63;32.90;;;13.90;99.90;;;;;;4936550;28;98605;-74
2022/10/15 06:52:13;;;;;;;52.63;33.00;;;13.90;99.90;;;;;;4951998;28;98651;-74
2022/10/15 06:54:40;;;;;;;55.78;31.77;;;14.00;99.90;;;;;;4935018;28;109559;-74
2022/10/15 06:57:07;;;;;;;55.28;32.55;;;14.00;99.90;;;;;;4953717;28;99097;-74
2022/10/15 06:59:34;;;;;;;57.40;33.20;;;14.10;99.90;;;;;;4953638;28;97835;-74
2022/10/15 07:02:03;;;;;;;50.03;31.98;;;14.10;99.90;;;;;;4952949;28;99315;-74
2022/10/15 07:04:30;;;;;;;47.45;31.38;;;14.10;99.90;;;;;;4967622;28;101802;-74
2022/10/15 07:06:56;;;;;;;49.10;30.05;;;14.20;99.90;;;;;;4951752;28;99332;-74
2022/10/15 07:09:26;;;;;;;52.13;32.13;;;14.30;99.90;;;;;;4967905;28;99197;-74
2022/10/15 07:11:52;;;;;;;45.65;29.23;;;14.30;99.90;;;;;;4919108;28;102036;-74
2022/10/15 07:14:19;;;;;;;46.95;30.27;;;14.40;99.90;;;;;;4951544;28;99148;-74
2022/10/15 07:16:46;;;;;;;45.08;29.58;;;14.50;99.90;;;;;;4952928;28;99851;-74
2022/10/15 07:19:13;;;;;;;45.03;29.88;;;14.60;99.90;;;;;;4968064;28;99320;-74
2022/10/15 07:21:41;;;;;;;47.88;30.70;;;14.70;99.90;;;;;;4935168;28;102072;-74
2022/10/15 07:24:10;;;;;;;49.83;30.05;;;14.70;99.90;;;;;;4953058;28;99072;-74
2022/10/15 07:26:37;;;;;;;47.58;29.33;;;14.80;99.90;;;;;;4951592;28;99242;-74
2022/10/15 07:29:04;;;;;;;47.13;29.55;;;14.80;99.90;;;;;;4935167;28;98746;-74
2022/10/15 07:31:32;;;;;;;48.47;31.20;;;14.90;99.90;;;;;;4966836;28;101177;-74
2022/10/15 07:33:59;;;;;;;47.05;28.90;;;14.90;99.90;;;;;;4952246;28;99992;-74
2022/10/15 07:36:26;;;;;;;46.13;28.33;;;14.90;99.90;;;;;;4952705;28;98536;-74
2022/10/15 07:38:53;;;;;;;43.75;28.52;;;14.90;99.90;;;;;;4968009;28;98626;-74
2022/10/15 07:41:20;;;;;;;44.55;28.88;;;14.90;99.90;;;;;;4952769;28;99406;-74
2022/10/15 07:43:50;;;;;;;45.17;28.70;;;14.90;99.90;;;;;;4950693;28;99338;-74
2022/10/15 07:46:18;;;;;;;40.13;27.75;;;15.00;99.90;;;;;;4967718;28;98623;-74
2022/10/15 07:48:45;;;;;;;45.22;29.63;;;15.00;99.90;;;;;;4919370;28;98211;-74
2022/10/15 07:51:11;;;;;;;42.45;28.58;;;15.10;99.90;;;;;;4952148;28;104125;-74
2022/10/15 07:53:39;;;;;;;43.22;29.10;;;15.10;99.90;;;;;;4950554;28;101763;-74
2022/10/15 07:56:09;;;;;;;41.47;28.05;;;15.20;99.90;;;;;;4952131;28;99232;-74
2022/10/15 07:58:37;;;;;;;41.88;28.42;;;15.30;99.90;;;;;;4951313;28;99006;-74
2022/10/15 08:01:07;;;;;;;37.30;26.70;;;15.30;99.90;;;;;;4952217;28;99343;-74
2022/10/15 08:03:34;;;;;;;40.00;28.52;;;15.40;99.90;;;;;;4951812;28;99141;-74
2022/10/15 08:06:04;;;;;;;40.92;28.73;;;15.40;99.90;;;;;;4934936;28;98566;-74
2022/10/15 08:08:33;;;;;;;40.80;26.85;;;15.40;99.90;;;;;;4952072;28;98544;-74
2022/10/15 08:11:08;;;;;;;39.85;27.80;;;15.40;99.90;;;;;;4934270;28;101765;-74
2022/10/15 08:13:35;;;;;;;40.08;26.92;;;15.50;99.90;;;;;;4952362;28;98922;-74
2022/10/15 08:16:02;;;;;;;40.47;27.38;;;15.50;99.90;;;;;;4967423;28;98499;-74
2022/10/15 08:18:29;;;;;;;42.83;29.45;;;15.40;99.90;;;;;;4967141;28;98694;-74
2022/10/15 08:20:59;;;;;;;43.35;28.38;;;15.50;99.90;;;;;;4951657;28;100029;-74
2022/10/15 08:23:27;;;;;;;39.03;27.88;;;15.50;99.90;;;;;;4951576;28;99956;-74
2022/10/15 08:25:56;;;;;;;43.00;29.45;;;15.50;99.90;;;;;;4969728;28;98652;-74
2022/10/15 08:28:22;;;;;;;43.28;30.17;;;15.60;99.90;;;;;;4954257;28;98618;-74
2022/10/15 08:30:49;;;;;;;41.17;29.42;;;15.60;99.90;;;;;;4953564;28;102199;-74
2022/10/15 08:33:16;;;;;;;40.22;29.52;;;15.70;99.90;;;;;;4954571;28;99130;-74
2022/10/15 08:35:43;;;;;;;38.47;28.58;;;15.70;99.90;;;;;;4955370;28;98992;-74
2022/10/15 08:38:11;;;;;;;38.42;28.60;;;15.80;99.90;;;;;;4971023;28;97861;-74
2022/10/15 08:40:45;;;;;;;36.25;28.55;;;15.90;99.90;;;;;;4955092;28;99493;-74
2022/10/15 08:43:22;;;;;;;35.53;27.48;;;16.20;99.90;;;;;;4955251;28;99209;-74
2022/10/15 08:45:55;;;;;;;38.20;28.23;;;16.40;99.90;;;;;;4955012;28;99308;-74
2022/10/15 08:48:30;;;;;;;41.58;28.48;;;16.50;99.90;;;;;;4970190;28;98892;-74
2022/10/15 08:51:09;;;;;;;37.60;27.95;;;16.50;99.90;;;;;;4954915;28;99073;-74
2022/10/15 08:53:56;;;;;;;42.08;28.80;;;16.60;99.90;;;;;;4954727;28;99032;-74
2022/10/15 08:56:28;;;;;;;40.33;28.75;;;16.60;99.90;;;;;;4954076;28;99112;-74
2022/10/15 08:59:38;;;;;;;35.70;26.98;;;16.60;99.90;;;;;;4970046;28;98564;-74
2022/10/15 09:02:17;;;;;;;36.45;26.10;;;16.70;99.90;;;;;;4955271;28;99280;-74
2022/10/15 09:04:53;;;;;;;36.95;28.75;;;16.70;99.90;;;;;;4970222;28;98999;-74
2022/10/15 09:07:32;;;;;;;32.95;25.85;;;16.90;99.90;;;;;;4953617;28;98649;-74
2022/10/15 09:10:22;;;;;;;32.80;25.55;;;16.90;99.90;;;;;;4970059;28;98590;-74
2022/10/15 09:13:41;;;;;;;36.13;26.35;;;17.10;99.90;;;;;;4923968;28;101123;-75
2022/10/15 09:16:15;;;;;;;32.53;26.27;;;17.30;99.90;;;;;;4940312;28;102754;-75
2022/10/15 09:18:48;;;;;;;36.60;26.73;;;17.50;99.90;;;;;;4969818;28;98563;-74
2022/10/15 09:21:16;;;;;;;33.55;26.50;;;17.60;99.90;;;;;;4969861;28;98495;-74
2022/10/15 09:23:44;;;;;;;35.97;28.80;;;17.70;99.90;;;;;;4969359;28;101895;-74
2022/10/15 09:26:11;;;;;;;32.33;26.33;;;17.80;99.90;;;;;;4954432;28;98879;-75
2022/10/15 09:29:08;;;;;;;31.27;26.77;;;17.90;99.90;;;;;;4969706;28;98662;-75
2022/10/15 09:31:47;;;;;;;31.25;26.08;;;18.20;99.90;;;;;;4934261;28;99601;-75
2022/10/15 09:34:21;;;;;;;29.27;26.10;;;18.20;99.90;;;;;;4968895;28;101973;-75
2022/10/15 09:36:59;;;;;;;32.03;26.33;;;18.20;99.90;;;;;;4969235;28;99485;-75
2022/10/15 09:39:44;;;;;;;31.30;24.75;;;18.20;99.90;;;;;;4954621;28;99352;-75
2022/10/15 09:42:18;;;;;;;26.92;22.77;;;18.20;99.90;;;;;;4954801;28;98545;-76
2022/10/15 09:44:46;;;;;;;;;;;18.00;99.90;;;;;;4954440;28;99422;-76
2022/10/15 09:47:26;;;;;;;26.80;23.15;;;17.90;99.90;;;;;;4955789;28;98564;-75
2022/10/15 09:49:59;;;;;;;27.48;22.73;;;17.90;99.90;;;;;;4954656;28;98680;-75
2022/10/15 09:52:51;;;;;;;24.40;21.00;;;17.80;99.90;;;;;;4953286;28;98931;-75
2022/10/15 09:55:46;;;;;;;29.55;24.10;;;17.80;99.90;;;;;;4936325;28;101831;-75
2022/10/15 09:58:21;;;;;;;28.63;22.83;;;17.70;99.90;;;;;;4953326;28;99192;-75
2022/10/15 10:01:14;;;;;;;26.58;21.17;;;17.60;99.90;;;;;;4954371;28;99111;-75
2022/10/15 10:03:41;;;;;;;27.58;20.58;;;17.60;99.90;;;;;;4947020;28;98645;-75
2022/10/15 10:06:12;;;;;;;30.20;22.00;;;17.40;99.90;;;;;;4952054;28;100155;-75
2022/10/15 10:08:53;;;;;;;31.58;22.45;;;17.40;99.90;;;;;;4967934;28;99855;-75
2022/10/15 10:11:23;;;;;;;29.23;20.95;;;17.40;99.90;;;;;;4954255;28;98445;-75
2022/10/15 10:14:00;;;;;;;30.83;22.48;;;17.40;99.90;;;;;;4968798;28;98613;-75
2022/10/15 10:16:28;;;;;;;32.97;24.05;;;17.40;99.90;;;;;;4953910;28;99373;-75
2022/10/15 10:19:04;;;;;;;32.20;22.52;;;17.30;99.90;;;;;;4953724;28;99164;-75
2022/10/15 10:21:34;;;;;;;30.53;23.03;;;17.30;99.90;;;;;;4968997;28;98463;-75
2022/10/15 10:24:30;;;;;;;30.23;22.25;;;17.30;99.90;;;;;;4953143;28;98040;-75
2022/10/15 10:26:58;;;;;;;32.83;23.25;;;17.30;99.90;;;;;;4953454;28;99325;-75
2022/10/15 10:29:28;;;;;;;35.63;24.67;;;17.20;99.90;;;;;;4952081;28;101651;-75
2022/10/15 10:32:16;;;;;;;32.30;22.80;;;17.20;99.90;;;;;;4953413;28;99332;-75
2022/10/15 10:34:43;;;;;;;32.25;23.05;;;17.20;99.90;;;;;;4953718;28;98548;-75
2022/10/15 10:37:16;;;;;;;32.45;23.13;;;17.10;99.90;;;;;;4937035;28;99519;-75
2022/10/15 10:39:44;;;;;;;30.90;23.60;;;17.10;99.90;;;;;;4953277;28;99093;-75
2022/10/15 10:42:18;;;;;;;35.70;24.23;;;17.10;99.90;;;;;;4968373;28;99002;-75
2022/10/15 10:44:45;;;;;;;28.95;21.00;;;17.20;99.90;;;;;;4953571;28;98546;-75
2022/10/15 10:47:18;;;;;;;29.70;21.02;;;17.20;99.90;;;;;;4952529;28;99324;-75
2022/10/15 10:49:47;;;;;;;28.43;20.27;;;17.30;99.90;;;;;;4953783;28;98877;-75
2022/10/15 10:52:27;;;;;;;29.08;21.60;;;17.40;99.90;;;;;;4953233;28;98536;-76
2022/10/15 10:55:11;;;;;;;29.33;21.13;;;17.70;99.90;;;;;;4953296;28;98528;-75
2022/10/15 10:57:58;;;;;;;27.48;20.50;;;17.80;99.90;;;;;;4951226;28;102536;-75
2022/10/15 11:00:40;;;;;;;24.60;20.00;;;18.10;99.90;;;;;;4968007;28;100941;-75
2022/10/15 11:03:35;;;;;;;23.13;18.17;;;18.40;99.90;;;;;;4953456;28;99074;-75
2022/10/15 11:06:14;;;;;;;19.85;16.73;;;18.60;99.90;;;;;;4945769;28;98539;-75
2022/10/15 11:09:07;;;;;;;21.13;16.98;;;18.60;99.90;;;;;;4967941;28;99351;-75
2022/10/15 11:11:52;;;;;;;20.42;17.38;;;18.60;99.90;;;;;;4967887;28;99483;-75
2022/10/15 11:14:34;;;;;;;20.98;16.92;;;18.60;99.90;;;;;;4951795;28;98612;-75
2022/10/15 11:17:22;;;;;;;23.02;16.92;;;18.60;99.90;;;;;;4951855;28;97919;-75
2022/10/15 11:19:49;;;;;;;20.08;16.60;;;18.70;99.90;;;;;;4951501;28;102111;-75
2022/10/15 11:22:47;;;;;;;21.67;18.27;;;18.50;99.90;;;;;;4951215;28;102373;-75
2022/10/15 11:25:39;;;;;;;19.67;15.80;;;18.60;99.90;;;;;;4951670;28;99878;-75
2022/10/15 11:28:25;;;;;;;21.65;17.70;;;18.80;99.90;;;;;;4951593;28;98582;-76
2022/10/15 11:31:16;;;;;;;20.67;17.10;;;19.00;99.90;;;;;;4967655;28;99248;-76
2022/10/15 11:33:57;;;;;;;17.45;15.60;;;19.20;99.90;;;;;;4952397;28;99174;-76
2022/10/15 11:36:58;;;;;;;17.75;15.63;;;19.30;99.90;;;;;;4953180;28;98430;-76
2022/10/15 11:39:58;;;;;;;18.65;16.20;;;19.30;99.90;;;;;;4952973;28;98482;-76
2022/10/15 11:42:48;;;;;;;20.15;16.02;;;19.10;99.90;;;;;;4952688;28;99321;-76
2022/10/15 11:45:48;;;;;;;18.98;16.38;;;19.00;99.90;;;;;;4952855;28;99303;-76
2022/10/15 11:48:39;;;;;;;17.10;15.40;;;19.00;99.90;;;;;;4929871;28;98627;-76
2022/10/15 11:51:32;;;;;;;17.40;15.32;;;19.00;99.90;;;;;;4967630;28;98638;-76
2022/10/15 11:54:21;;;;;;;16.83;14.73;;;19.10;99.90;;;;;;4952087;28;100221;-76
2022/10/15 11:56:51;;;;;;;15.55;14.00;;;19.30;99.90;;;;;;4952155;28;99888;-76
2022/10/15 11:59:27;;;;;;;16.02;14.32;;;19.30;99.90;;;;;;4951194;28;98573;-76
2022/10/15 12:01:59;;;;;;;15.32;13.73;;;19.40;99.90;;;;;;4951214;28;98600;-76
2022/10/15 12:04:43;;;;;;;16.00;14.23;;;19.30;99.90;;;;;;4950606;28;100403;-76
2022/10/15 12:07:39;;;;;;;15.25;13.65;;;19.30;99.90;;;;;;4950674;28;99146;-76
2022/10/15 12:10:36;;;;;;;15.20;13.60;;;19.10;99.90;;;;;;4952358;28;98556;-76
2022/10/15 12:13:07;;;;;;;15.98;13.93;;;19.10;99.90;;;;;;4950960;28;97873;-76
2022/10/15 12:15:46;;;;;;;15.68;14.07;;;19.10;99.90;;;;;;4950532;28;102060;-76
2022/10/15 12:18:25;;;;;;;15.27;12.50;;;19.20;99.90;;;;;;4952094;28;99107;-76
2022/10/15 12:20:54;;;;;;;14.00;12.50;;;19.40;99.90;;;;;;4952113;28;100713;-76
2022/10/15 12:23:24;;;;;;;14.07;12.60;;;19.50;99.90;;;;;;4951757;28;98581;-76
2022/10/15 12:25:53;;;;;;;15.05;13.43;;;19.50;99.90;;;;;;4967000;28;102020;-76
2022/10/15 12:28:27;;;;;;;14.50;12.63;;;19.50;99.90;;;;;;4951790;28;99631;-76
2022/10/15 12:31:05;;;;;;;13.15;11.85;;;19.50;99.90;;;;;;4952402;28;98544;-76
2022/10/15 12:33:51;;;;;;;13.70;11.70;;;19.30;99.90;;;;;;4951741;28;98576;-76
2022/10/15 12:36:18;;;;;;;12.75;11.45;;;19.30;99.90;;;;;;4954066;28;99415;-76
2022/10/15 12:39:18;;;;;;;13.30;11.13;;;19.20;99.90;;;;;;4960520;28;99050;-76
2022/10/15 12:41:50;;;;;;;13.27;11.97;;;19.30;99.90;;;;;;4951228;28;98811;-76
2022/10/15 12:44:27;;;;;;;12.25;10.95;;;19.20;99.90;;;;;;4951906;28;98594;-76
2022/10/15 12:46:55;;;;;;;12.20;10.98;;;19.40;99.90;;;;;;4951596;28;100514;-76
2022/10/15 12:49:25;;;;;;;12.32;11.13;;;19.30;99.90;;;;;;4949943;28;99542;-76
2022/10/15 12:51:56;;;;;;;12.07;10.80;;;19.30;99.90;;;;;;4950336;28;98541;-76
2022/10/15 12:54:35;;;;;;;11.85;10.13;;;19.30;99.90;;;;;;4951547;28;98436;-76
2022/10/15 12:57:32;;;;;;;12.38;11.07;;;19.30;99.90;;;;;;4951345;28;99244;-76